Calgary Springbank Airport
CYBW : now visible

Airfield :











YOU CAN JOIN US ON...

 
LOGIN :

Register | Disclaimer

   EN    FR    IT 

 









Legend :    VFR   Marginal VFR   IFR   Intensive IFR   Very Intensive IFR
Visi :
Ceiling :
>= 8 km
>= 3000ft
5 to 8 km
1000 to 3000 ft
1500m to 5 km
500 to 1000 ft
800 to 1500m
200 to 500 ft
< 800m
< 200 ft
Symbols :   Thunderstorms  Fog  Heavy snow  Heavy precipitations  Wind > 20 kt






- Airport Elevation : 3937 ft
- IATA code : YBW


CYBW - Calgary Springbank

CURRENT METAR :
  • 080806Z AUTO 05008KT 1SM R35/P6000FT/U -SN FEW005 OVC011 M11/M13 A2981 RMK SLP170

EXPIRED METARs :
  • 080750Z AUTO 05009KT 3/4SM R35/P6000FT/U -SN VV006 M11/M13 A2981 RMK SLP168
  • 080700Z AUTO 06009KT 1SM R35/P6000FT/N -SN OVC004 M11/M12 A2980 RMK SLP164
  • 080647Z AUTO 07010KT 3/4SM R35/P6000FT/D -SN OVC004 M10/M11 A2979 RMK SLP163
  • 080624Z AUTO 08010KT 2 1/2SM -SN OVC004 M10/M11 A2979 RMK SLP161
  • 080600Z AUTO 07010KT 4SM -SN BKN004 OVC008 M10/M11 A2979 RMK SLP160
  • 080558Z AUTO 07010KT 5SM -SN BKN004 OVC008 M10/M11 A2978 RMK SLP160

Expired Forecast.



MET'MAP, your aeronautical weather chart ! - Copyright ORBIFLY December 2007 - Disclaimer

ORBIFLY MET'MAP TEAM :

Programming & Development : Alexandra Zaïnal
Concept & original design : Baudouin d'Aumeries
Assistance for programming : Marc-Olivier Méhu
Technical & hardware support : Manuel Goepfert

Contact : metmap@orbifly.com




SOURCES & CREDITS :

   NOAA       Earth
Advisory